Time;durP1;ratioP1;P1;durP2;ratioP2;P2;SDS_P1;SDS_P2;PMS_P1;PMS_P2;Temp;Humidity;BMP_temperature;BMP_pressure;BME280_temperature;BME280_humidity;BME280_pressure;Samples;Min_cycle;Max_cycle;Signal;HPM_P1;HPM_P2
2021/01/29 00:00:12;;;;;;;25.43;14.03;;;2.00;94.60;;;;;;5054974;28;20551;-81
2021/01/29 00:02:38;;;;;;;23.87;12.87;;;2.00;94.80;;;;;;5073040;28;20063;-81
2021/01/29 00:05:06;;;;;;;23.43;13.13;;;1.90;95.10;;;;;;5055243;28;20024;-81
2021/01/29 00:07:31;;;;;;;20.87;12.40;;;1.90;95.10;;;;;;5057749;28;20119;-81
2021/01/29 00:09:57;;;;;;;21.77;13.17;;;1.90;95.10;;;;;;5058313;28;20116;-81
2021/01/29 00:12:24;;;;;;;28.23;13.57;;;1.90;95.10;;;;;;5058725;28;20032;-81
2021/01/29 00:14:51;;;;;;;21.77;12.53;;;1.90;95.10;;;;;;5058429;28;21354;-81
2021/01/29 00:17:16;;;;;;;25.10;13.30;;;1.90;95.30;;;;;;5058625;28;20074;-81
2021/01/29 00:19:42;;;;;;;19.57;12.30;;;1.90;95.30;;;;;;5058440;28;20032;-81
2021/01/29 00:22:09;;;;;;;22.73;13.20;;;1.90;95.30;;;;;;5058656;28;20035;-81
2021/01/29 00:24:35;;;;;;;26.57;13.90;;;1.90;95.10;;;;;;5083586;28;20036;-81
2021/01/29 00:27:01;;;;;;;26.10;13.80;;;1.90;95.10;;;;;;5096737;28;20024;-81
2021/01/29 00:29:26;;;;;;;28.13;14.43;;;1.90;95.10;;;;;;5078721;28;20489;-81
2021/01/29 00:31:52;;;;;;;24.30;13.90;;;1.90;95.20;;;;;;5078609;28;20381;-81
2021/01/29 00:34:18;;;;;;;20.37;13.33;;;1.90;95.30;;;;;;5096610;28;20554;-81
2021/01/29 00:36:43;;;;;;;20.33;13.53;;;2.00;95.30;;;;;;5078493;28;20438;-82
2021/01/29 00:39:09;;;;;;;21.23;12.60;;;2.00;95.30;;;;;;5096470;28;20032;-81
2021/01/29 00:41:36;;;;;;;22.60;13.17;;;2.00;95.30;;;;;;5078307;28;20024;-81
2021/01/29 00:44:02;;;;;;;21.53;13.03;;;2.00;95.30;;;;;;5078315;28;20017;-81
2021/01/29 00:46:28;;;;;;;23.07;13.93;;;2.00;95.10;;;;;;5078379;28;20016;-81
2021/01/29 00:48:54;;;;;;;22.50;13.73;;;2.00;95.20;;;;;;5096200;28;20501;-81
2021/01/29 00:51:20;;;;;;;23.40;14.13;;;1.90;95.50;;;;;;5078267;28;20032;-81
2021/01/29 00:53:45;;;;;;;22.13;13.07;;;1.80;95.60;;;;;;5077975;28;20054;-81
2021/01/29 00:56:11;;;;;;;23.63;13.60;;;1.90;95.90;;;;;;5077807;28;20508;-81
2021/01/29 00:58:37;;;;;;;28.00;14.57;;;1.90;95.90;;;;;;5096294;28;20478;-81
2021/01/29 01:01:04;;;;;;;23.83;13.10;;;1.90;95.90;;;;;;5093889;28;20027;-81
2021/01/29 01:03:29;;;;;;;24.93;12.53;;;2.00;95.80;;;;;;5075722;28;20078;-81
2021/01/29 01:05:55;;;;;;;17.93;12.30;;;2.00;95.70;;;;;;5057718;28;20028;-81
2021/01/29 01:08:22;;;;;;;22.53;13.00;;;2.10;95.70;;;;;;5057900;28;20012;-81
2021/01/29 01:10:48;;;;;;;22.37;14.10;;;2.20;95.70;;;;;;5075638;28;20027;-81
2021/01/29 01:13:14;;;;;;;19.47;12.37;;;2.20;95.50;;;;;;5060105;28;20020;-81
2021/01/29 01:15:40;;;;;;;18.43;12.60;;;2.00;95.90;;;;;;5095869;28;20381;-82
2021/01/29 01:18:07;;;;;;;21.30;12.67;;;1.80;95.80;;;;;;5076357;28;20027;-81
2021/01/29 01:20:32;;;;;;;22.60;13.60;;;1.60;96.70;;;;;;5077797;28;20115;-81
2021/01/29 01:22:59;;;;;;;23.70;13.30;;;1.60;96.90;;;;;;5095561;28;20158;-81
2021/01/29 01:25:24;;;;;;;22.40;12.67;;;1.60;97.10;;;;;;5077597;28;20642;-81
2021/01/29 01:27:51;;;;;;;23.93;13.77;;;1.70;97.10;;;;;;5077609;28;20020;-81
2021/01/29 01:30:26;;;;;;;23.33;13.60;;;1.70;97.10;;;;;;5096028;28;20103;-82
2021/01/29 01:32:52;;;;;;;26.13;14.33;;;1.70;97.00;;;;;;5076825;28;20058;-82
2021/01/29 01:35:19;;;;;;;27.70;14.60;;;1.70;96.90;;;;;;5077455;28;20406;-82
2021/01/29 01:37:46;;;;;;;25.27;15.17;;;1.60;97.10;;;;;;5076579;28;20480;-81
2021/01/29 01:40:12;;;;;;;26.27;14.53;;;1.70;97.30;;;;;;5076663;28;20081;-81
2021/01/29 01:42:38;;;;;;;22.67;14.83;;;1.70;97.20;;;;;;5094515;28;20034;-81
2021/01/29 01:45:25;;;;;;;24.00;13.77;;;1.70;97.10;;;;;;5076759;28;20024;-81
2021/01/29 01:47:51;;;;;;;25.43;13.67;;;1.70;97.00;;;;;;5076854;28;20047;-82
2021/01/29 01:50:50;;;;;;;22.37;14.03;;;1.60;97.60;;;;;;5092729;28;20028;-82
2021/01/29 01:53:23;;;;;;;22.93;13.90;;;1.70;97.60;;;;;;5076952;28;20114;-82
2021/01/29 01:55:57;;;;;;;28.73;15.40;;;1.70;97.40;;;;;;5077111;28;20043;-82
2021/01/29 01:58:24;;;;;;;19.60;13.40;;;1.70;97.40;;;;;;5094685;28;20024;-81
2021/01/29 02:00:50;;;;;;;23.70;14.63;;;1.60;97.50;;;;;;5076380;28;20039;-81
2021/01/29 02:03:21;;;;;;;22.67;13.63;;;1.60;97.70;;;;;;5076237;28;20058;-81
2021/01/29 02:05:47;;;;;;;20.93;12.17;;;1.60;97.90;;;;;;5076538;28;20447;-81
2021/01/29 02:08:16;;;;;;;20.70;12.77;;;1.60;98.20;;;;;;5094520;28;20048;-81
2021/01/29 02:10:41;;;;;;;25.77;14.30;;;1.70;98.20;;;;;;5094198;28;20544;-82
2021/01/29 02:13:08;;;;;;;24.53;14.50;;;1.70;97.70;;;;;;5094230;28;20047;-81
2021/01/29 02:15:41;;;;;;;32.00;13.90;;;1.80;97.70;;;;;;5076284;28;20020;-81
2021/01/29 02:18:21;;;;;;;21.93;13.17;;;1.80;97.70;;;;;;5078980;28;20020;-81
2021/01/29 02:21:08;;;;;;;25.30;13.37;;;1.80;97.50;;;;;;5114617;28;20032;-81
2021/01/29 02:23:55;;;;;;;23.97;13.97;;;1.70;97.50;;;;;;5082221;28;20032;-81
2021/01/29 02:26:45;;;;;;;22.27;13.33;;;1.70;97.70;;;;;;5056002;28;20121;-80
2021/01/29 02:29:26;;;;;;;25.43;14.57;;;1.60;97.90;;;;;;5055664;28;20021;-81
2021/01/29 02:32:14;;;;;;;22.95;13.52;;;1.60;98.00;;;;;;5055820;28;20479;-81
2021/01/29 02:35:10;;;;;;;25.33;13.83;;;1.60;97.90;;;;;;5073674;28;20386;-81
2021/01/29 02:37:54;;;;;;;27.73;14.93;;;1.60;97.90;;;;;;5055501;28;20044;-81
2021/01/29 02:41:02;;;;;;;28.47;14.87;;;1.50;98.00;;;;;;5055660;28;20402;-81
2021/01/29 02:43:43;;;;;;;25.13;15.17;;;1.50;98.10;;;;;;5044716;28;20036;-81
2021/01/29 02:46:18;;;;;;;24.53;13.90;;;1.50;97.90;;;;;;5055681;28;20020;-80
2021/01/29 02:49:07;;;;;;;24.93;13.83;;;1.60;98.00;;;;;;5052707;28;20116;-80
2021/01/29 02:51:49;;;;;;;23.97;13.33;;;1.70;97.70;;;;;;5053488;28;20021;-80
2021/01/29 02:54:38;;;;;;;25.38;13.48;;;1.60;97.80;;;;;;5067632;28;20056;-80
2021/01/29 02:57:15;;;;;;;23.10;13.00;;;1.60;98.10;;;;;;5073182;28;20103;-81
2021/01/29 03:00:05;;;;;;;23.40;13.53;;;1.70;98.20;;;;;;5073343;28;20030;-80
2021/01/29 03:02:54;;;;;;;23.93;13.67;;;1.70;97.80;;;;;;5072314;28;20461;-80
2021/01/29 03:05:30;;;;;;;25.37;14.43;;;1.80;97.80;;;;;;4996853;28;20128;-80
2021/01/29 03:07:58;;;;;;;26.10;13.43;;;1.90;97.80;;;;;;5035225;28;20083;-80
2021/01/29 03:10:51;;;;;;;20.73;12.93;;;1.90;97.80;;;;;;5035210;28;20392;-80
2021/01/29 03:13:26;;;;;;;23.23;13.00;;;2.00;97.60;;;;;;5035020;28;20482;-80
2021/01/29 03:15:58;;;;;;;22.67;13.57;;;2.10;97.50;;;;;;5035073;28;20025;-80
2021/01/29 03:18:29;;;;;;;22.50;12.88;;;2.10;97.50;;;;;;5041974;28;20115;-80
2021/01/29 03:20:55;;;;;;;23.07;13.17;;;2.10;97.40;;;;;;5055132;28;20025;-81
2021/01/29 03:23:36;;;;;;;22.57;13.80;;;2.00;97.40;;;;;;5054843;28;20573;-80
2021/01/29 03:26:07;;;;;;;20.83;13.18;;;2.10;97.40;;;;;;5071772;28;20421;-80
2021/01/29 03:28:38;;;;;;;20.33;13.03;;;2.20;97.10;;;;;;5075084;28;20432;-80
2021/01/29 03:31:05;;;;;;;23.43;14.03;;;2.20;97.30;;;;;;5075013;28;20035;-80
2021/01/29 03:33:34;;;;;;;21.83;12.97;;;2.20;97.20;;;;;;5092779;28;20024;-81
2021/01/29 03:36:04;;;;;;;20.90;13.23;;;2.20;97.20;;;;;;5074837;28;20077;-81
2021/01/29 03:38:30;;;;;;;26.57;13.63;;;2.20;97.10;;;;;;5074607;28;20056;-80
2021/01/29 03:41:08;;;;;;;19.73;12.37;;;2.20;97.00;;;;;;5074189;28;20071;-80
2021/01/29 03:43:54;;;;;;;21.33;12.83;;;2.30;97.10;;;;;;5074262;28;20060;-80
2021/01/29 03:46:43;;;;;;;21.20;13.53;;;2.30;97.30;;;;;;5074896;28;20052;-80
2021/01/29 03:49:31;;;;;;;18.77;12.60;;;2.20;97.30;;;;;;5082033;28;20040;-80
2021/01/29 03:52:23;;;;;;;23.93;13.50;;;2.30;97.40;;;;;;5093018;28;20095;-80
2021/01/29 03:55:01;;;;;;;20.87;12.97;;;2.30;97.30;;;;;;5074741;28;20028;-80
2021/01/29 03:57:38;;;;;;;18.53;12.27;;;2.40;97.40;;;;;;5074619;28;20024;-80
2021/01/29 04:00:18;;;;;;;23.43;14.70;;;2.40;97.60;;;;;;5074352;28;20200;-80
2021/01/29 04:02:56;;;;;;;21.67;13.40;;;2.40;97.30;;;;;;5092584;28;20394;-80
2021/01/29 04:05:33;;;;;;;23.97;13.70;;;2.50;97.30;;;;;;5074669;28;20054;-80
2021/01/29 04:08:07;;;;;;;22.67;13.57;;;2.50;97.20;;;;;;5074701;28;20016;-80
2021/01/29 04:10:35;;;;;;;21.33;12.90;;;2.50;97.30;;;;;;5092465;28;20016;-80
2021/01/29 04:13:21;;;;;;;21.60;13.20;;;2.50;96.90;;;;;;5074512;28;20028;-80
2021/01/29 04:15:46;;;;;;;26.00;13.43;;;2.60;97.20;;;;;;5074604;28;20115;-80
2021/01/29 04:18:45;;;;;;;21.03;12.83;;;2.50;97.30;;;;;;5092474;28;20146;-79
2021/01/29 04:21:21;;;;;;;22.07;13.63;;;2.60;97.50;;;;;;5091975;28;20439;-80
2021/01/29 04:23:55;;;;;;;23.97;13.43;;;2.50;97.70;;;;;;5074184;28;20020;-79
2021/01/29 04:26:25;;;;;;;19.70;12.83;;;2.50;98.10;;;;;;5074356;28;20028;-80
2021/01/29 04:29:17;;;;;;;25.07;14.07;;;2.50;98.30;;;;;;5092304;28;20486;-80
2021/01/29 04:31:45;;;;;;;23.48;14.52;;;2.50;98.20;;;;;;5056780;28;20028;-80
2021/01/29 04:34:17;;;;;;;26.00;13.00;;;2.50;98.00;;;;;;5092408;28;20020;-80
2021/01/29 04:36:46;;;;;;;19.33;13.23;;;2.60;97.90;;;;;;5074193;28;20394;-80
2021/01/29 04:39:26;;;;;;;25.20;13.23;;;2.60;97.70;;;;;;5091670;28;20500;-80
2021/01/29 04:42:09;;;;;;;21.03;12.50;;;2.70;97.60;;;;;;5092120;28;20516;-80
2021/01/29 04:44:50;;;;;;;21.03;13.17;;;2.70;97.70;;;;;;5073162;28;20055;-80
2021/01/29 04:47:51;;;;;;;24.77;13.13;;;2.70;97.70;;;;;;5054055;28;20115;-80
2021/01/29 04:50:40;;;;;;;23.97;13.90;;;2.80;97.80;;;;;;5034706;28;20029;-80
2021/01/29 04:53:47;;;;;;;22.87;13.03;;;2.70;98.40;;;;;;5075167;28;20020;-80
2021/01/29 04:56:40;;;;;;;24.73;12.87;;;2.60;98.60;;;;;;5041931;28;20037;-80
2021/01/29 04:59:18;;;;;;;26.07;13.80;;;2.60;98.70;;;;;;5053866;28;20029;-80
2021/01/29 05:02:21;;;;;;;21.83;13.60;;;2.60;98.80;;;;;;5057241;28;20648;-80
2021/01/29 05:05:15;;;;;;;22.30;13.20;;;2.60;98.90;;;;;;5057321;28;20127;-80
2021/01/29 05:07:55;;;;;;;23.53;13.47;;;2.60;98.90;;;;;;5075251;28;20060;-80
2021/01/29 05:10:24;;;;;;;20.93;13.07;;;2.60;98.80;;;;;;5057255;28;20504;-80
2021/01/29 05:13:08;;;;;;;22.07;12.67;;;2.60;99.00;;;;;;5056871;28;20386;-79
2021/01/29 05:15:49;;;;;;;22.23;13.67;;;2.60;99.10;;;;;;5056547;28;20482;-80
2021/01/29 05:18:36;;;;;;;21.13;13.03;;;2.60;99.10;;;;;;5079990;28;20085;-80
2021/01/29 05:21:05;;;;;;;27.47;13.40;;;2.60;99.10;;;;;;5076755;28;20035;-80
2021/01/29 05:23:59;;;;;;;21.23;12.93;;;2.60;99.20;;;;;;5076611;28;20588;-80
2021/01/29 05:26:37;;;;;;;22.70;12.73;;;2.60;99.30;;;;;;5093187;28;20093;-80
2021/01/29 05:29:26;;;;;;;20.97;12.60;;;2.60;99.50;;;;;;5094729;28;20066;-80
2021/01/29 05:32:03;;;;;;;18.23;12.53;;;2.60;99.30;;;;;;5076909;28;20614;-80
2021/01/29 05:34:47;;;;;;;24.30;13.33;;;2.60;99.50;;;;;;5076849;28;20020;-81
2021/01/29 05:37:40;;;;;;;22.30;12.60;;;2.60;99.40;;;;;;5076282;28;20024;-81
2021/01/29 05:40:36;;;;;;;20.70;12.83;;;2.60;99.50;;;;;;5076632;28;20024;-81
2021/01/29 05:43:49;;;;;;;23.70;12.33;;;2.60;99.70;;;;;;5076474;28;20123;-81
2021/01/29 05:46:52;;;;;;;21.50;12.27;;;2.50;99.70;;;;;;4993035;28;20525;-80
2021/01/29 05:49:24;;;;;;;22.47;12.77;;;2.50;99.80;;;;;;4984695;28;20393;-81
2021/01/29 05:52:08;;;;;;;28.30;13.23;;;2.50;99.70;;;;;;5059651;28;20037;-81
2021/01/29 05:54:51;;;;;;;19.03;12.40;;;2.50;99.80;;;;;;5072152;28;20029;-80
2021/01/29 05:57:36;;;;;;;17.97;12.23;;;2.60;99.70;;;;;;5093630;28;20015;-81
2021/01/29 06:00:08;;;;;;;21.37;12.60;;;2.60;99.70;;;;;;5093628;28;20504;-81
2021/01/29 06:02:49;;;;;;;24.05;12.32;;;2.60;99.70;;;;;;5074887;28;20077;-80
2021/01/29 06:05:15;;;;;;;23.17;13.60;;;2.60;99.80;;;;;;5075350;28;20028;-81
2021/01/29 06:08:11;;;;;;;22.43;12.53;;;2.50;99.70;;;;;;5082981;28;20032;-80
2021/01/29 06:10:44;;;;;;;22.10;13.07;;;2.50;99.80;;;;;;5059718;28;20028;-80
2021/01/29 06:13:23;;;;;;;20.57;12.17;;;2.50;99.90;;;;;;5056004;28;20101;-80
2021/01/29 06:16:07;;;;;;;23.67;13.63;;;2.50;99.90;;;;;;5073937;28;20023;-80
2021/01/29 06:19:10;;;;;;;27.83;14.70;;;2.40;99.90;;;;;;5065386;28;20123;-80
2021/01/29 06:21:58;;;;;;;25.93;14.20;;;2.40;99.90;;;;;;5075724;28;20528;-80
2021/01/29 06:24:35;;;;;;;25.87;14.17;;;2.30;99.90;;;;;;5075825;28;20048;-80
2021/01/29 06:27:32;;;;;;;23.77;13.70;;;2.30;99.90;;;;;;5075789;28;20020;-80
2021/01/29 06:30:34;;;;;;;24.13;14.73;;;2.20;99.90;;;;;;5075738;28;20047;-80
2021/01/29 06:33:37;;;;;;;28.17;14.98;;;2.10;99.90;;;;;;5093318;28;20610;-80
2021/01/29 06:36:03;;;;;;;27.77;15.07;;;2.10;99.90;;;;;;5075538;28;20032;-81
2021/01/29 06:38:37;;;;;;;30.67;16.43;;;2.00;99.90;;;;;;5075071;28;20367;-80
2021/01/29 06:41:03;;;;;;;33.90;18.67;;;1.80;99.90;;;;;;5075682;28;20028;-80
2021/01/29 06:44:02;;;;;;;31.40;17.87;;;1.80;99.90;;;;;;5093639;28;20039;-81
2021/01/29 06:46:44;;;;;;;33.77;17.87;;;1.80;99.90;;;;;;5075310;28;20166;-80
2021/01/29 06:49:34;;;;;;;32.30;16.50;;;1.80;99.90;;;;;;5073732;28;20044;-81
2021/01/29 06:52:06;;;;;;;27.03;16.47;;;1.90;99.90;;;;;;5075029;28;20486;-80
2021/01/29 06:54:59;;;;;;;25.50;16.60;;;2.00;99.90;;;;;;5057251;28;20095;-80
2021/01/29 06:57:55;;;;;;;25.80;16.23;;;2.00;99.90;;;;;;5055320;28;20023;-81
2021/01/29 07:00:49;;;;;;;26.77;16.13;;;1.90;99.90;;;;;;5056114;28;20486;-81
2021/01/29 07:03:48;;;;;;;39.57;20.10;;;1.80;99.90;;;;;;5054627;28;20036;-80
2021/01/29 07:06:31;;;;;;;31.23;17.83;;;1.80;99.90;;;;;;5066003;28;20029;-81
2021/01/29 07:09:09;;;;;;;27.43;16.50;;;1.80;99.90;;;;;;5075055;28;20800;-81
2021/01/29 07:11:57;;;;;;;27.97;16.03;;;1.80;99.90;;;;;;5093413;28;20074;-80
2021/01/29 07:14:31;;;;;;;27.23;14.60;;;1.90;99.90;;;;;;5092564;28;20028;-80
2021/01/29 07:17:24;;;;;;;23.20;14.33;;;2.00;99.90;;;;;;5074755;28;20029;-80
2021/01/29 07:20:11;;;;;;;25.83;15.20;;;2.00;99.90;;;;;;5074861;28;20616;-80
2021/01/29 07:22:46;;;;;;;24.17;14.23;;;2.10;99.90;;;;;;5074824;28;20024;-80
2021/01/29 07:25:30;;;;;;;25.83;14.77;;;2.20;99.90;;;;;;5062637;28;20403;-80
2021/01/29 07:28:46;;;;;;;26.93;14.93;;;2.20;99.90;;;;;;5054515;28;20035;-80
2021/01/29 07:31:36;;;;;;;30.07;15.33;;;2.30;99.90;;;;;;5013130;28;20086;-80
2021/01/29 07:34:16;;;;;;;26.13;15.20;;;2.30;99.90;;;;;;5054732;28;20086;-80
2021/01/29 07:36:51;;;;;;;26.20;14.33;;;2.40;99.90;;;;;;5072885;28;20025;-80
2021/01/29 07:39:44;;;;;;;25.30;15.20;;;2.40;99.90;;;;;;5053098;28;20041;-80
2021/01/29 07:42:50;;;;;;;25.57;14.83;;;2.50;99.90;;;;;;5053802;28;20035;-81
2021/01/29 07:45:44;;;;;;;26.87;16.13;;;2.50;99.90;;;;;;5051005;28;20421;-78
2021/01/29 07:48:27;;;;;;;29.53;16.20;;;2.50;99.90;;;;;;5054111;28;20078;-79
2021/01/29 07:51:04;;;;;;;26.07;15.53;;;2.50;99.90;;;;;;5072811;28;20039;-78
2021/01/29 07:54:07;;;;;;;33.37;16.20;;;2.60;99.90;;;;;;5054677;28;20037;-78
2021/01/29 07:57:01;;;;;;;28.30;15.73;;;2.60;99.90;;;;;;5054814;28;20037;-79
2021/01/29 07:59:30;;;;;;;31.33;16.53;;;2.60;99.90;;;;;;5072733;28;20036;-78
2021/01/29 08:02:21;;;;;;;32.00;17.20;;;2.60;99.90;;;;;;5054389;28;20036;-78
2021/01/29 08:05:21;;;;;;;32.67;17.07;;;2.60;99.90;;;;;;5054636;28;20399;-78
2021/01/29 08:07:53;;;;;;;38.40;19.27;;;2.60;99.90;;;;;;5054290;28;20070;-79
2021/01/29 08:10:27;;;;;;;55.05;30.02;;;2.70;99.90;;;;;;5054867;28;20025;-79
2021/01/29 08:13:09;;;;;;;52.37;26.77;;;2.60;99.90;;;;;;5034473;28;20029;-78
2021/01/29 08:16:12;;;;;;;46.97;25.25;;;2.60;99.90;;;;;;5034463;28;20025;-79
2021/01/29 08:19:02;;;;;;;35.50;20.13;;;2.70;99.90;;;;;;5043140;28;20050;-78
2021/01/29 08:21:47;;;;;;;41.73;19.57;;;2.70;99.90;;;;;;5054773;28;20027;-78
2021/01/29 08:24:40;;;;;;;37.93;19.17;;;2.60;99.90;;;;;;5076122;28;20063;-79
2021/01/29 08:27:24;;;;;;;55.20;24.90;;;2.70;99.90;;;;;;5076354;28;20020;-78
2021/01/29 08:30:11;;;;;;;58.60;26.53;;;2.80;99.90;;;;;;5078138;28;20470;-79
2021/01/29 08:33:09;;;;;;;45.53;23.73;;;2.90;99.90;;;;;;5078041;28;20102;-79
2021/01/29 08:36:05;;;;;;;40.13;21.00;;;3.00;99.90;;;;;;5076564;28;20020;-79
2021/01/29 08:38:36;;;;;;;32.17;19.07;;;3.00;99.90;;;;;;5061958;28;20046;-79
2021/01/29 08:41:15;;;;;;;32.70;19.17;;;3.10;99.90;;;;;;5077861;28;20027;-79
2021/01/29 08:43:47;;;;;;;42.93;21.23;;;3.20;99.90;;;;;;5077870;28;20024;-78
2021/01/29 08:46:33;;;;;;;50.53;24.20;;;3.20;99.90;;;;;;5096279;28;20024;-79
2021/01/29 08:49:18;;;;;;;43.63;23.13;;;3.40;99.90;;;;;;5077834;28;20032;-79
2021/01/29 08:51:50;;;;;;;42.67;23.43;;;3.50;99.90;;;;;;5095977;28;20531;-79
2021/01/29 08:54:30;;;;;;;41.08;22.75;;;3.50;99.90;;;;;;5077768;28;20032;-78
2021/01/29 08:57:19;;;;;;;46.93;23.27;;;3.70;99.90;;;;;;5089037;28;20035;-80
2021/01/29 08:59:49;;;;;;;42.10;22.20;;;3.80;99.90;;;;;;5057728;28;20430;-80
2021/01/29 09:02:26;;;;;;;39.00;21.40;;;3.90;99.90;;;;;;5060314;28;20077;-78
2021/01/29 09:05:04;;;;;;;44.73;21.97;;;4.00;99.90;;;;;;5057628;28;20478;-78
2021/01/29 09:07:33;;;;;;;39.30;22.03;;;4.00;99.90;;;;;;5057608;28;20024;-79
2021/01/29 09:10:31;;;;;;;33.70;19.67;;;4.10;99.90;;;;;;5065728;28;20020;-81
2021/01/29 09:13:03;;;;;;;40.40;19.57;;;4.10;99.90;;;;;;5066271;28;20111;-81
2021/01/29 09:15:43;;;;;;;32.47;19.05;;;4.20;99.50;;;;;;5073480;28;20094;-81
2021/01/29 09:18:16;;;;;;;34.77;18.93;;;4.20;99.30;;;;;;5076913;28;20035;-81
2021/01/29 09:20:46;;;;;;;31.10;18.57;;;4.20;99.50;;;;;;5076996;28;20095;-78
2021/01/29 09:23:27;;;;;;;38.17;19.70;;;4.30;99.50;;;;;;5064621;28;20059;-79
2021/01/29 09:26:10;;;;;;;43.38;18.73;;;4.30;99.00;;;;;;5093332;28;20089;-79
2021/01/29 09:28:47;;;;;;;43.33;19.23;;;4.30;98.50;;;;;;5094792;28;20112;-78
2021/01/29 09:31:28;;;;;;;53.40;24.40;;;4.40;98.50;;;;;;5072880;28;20394;-78
2021/01/29 09:34:28;;;;;;;61.10;27.87;;;4.40;99.00;;;;;;5076733;28;20024;-78
2021/01/29 09:37:31;;;;;;;175.23;67.03;;;4.40;98.80;;;;;;5090424;28;20074;-78
2021/01/29 09:40:10;;;;;;;87.90;41.07;;;4.40;98.90;;;;;;5076357;28;20039;-78
2021/01/29 09:43:22;;;;;;;46.73;24.47;;;4.50;98.80;;;;;;5076472;28;20032;-79
2021/01/29 09:45:55;;;;;;;41.95;18.65;;;4.50;97.90;;;;;;5076327;28;20028;-78
2021/01/29 09:48:24;;;;;;;41.47;19.40;;;4.50;97.40;;;;;;5074558;28;20016;-78
2021/01/29 09:51:21;;;;;;;38.53;18.33;;;4.60;97.40;;;;;;5072500;28;20481;-78
2021/01/29 09:54:07;;;;;;;33.77;17.37;;;4.60;97.20;;;;;;5053928;28;20028;-78
2021/01/29 09:56:39;;;;;;;28.25;16.20;;;4.60;96.50;;;;;;5058661;28;20029;-78
2021/01/29 09:59:44;;;;;;;38.97;18.50;;;4.70;96.70;;;;;;5066489;28;20028;-79
2021/01/29 10:02:24;;;;;;;34.20;17.80;;;4.70;97.00;;;;;;5003759;28;20034;-78
2021/01/29 10:05:04;;;;;;;36.33;17.70;;;4.70;97.10;;;;;;5070014;28;20028;-78
2021/01/29 10:07:33;;;;;;;31.03;16.60;;;4.80;97.50;;;;;;5076045;28;20066;-78
2021/01/29 10:10:11;;;;;;;38.97;19.93;;;4.70;97.00;;;;;;5094405;28;20028;-79
2021/01/29 10:16:16;;;;;;;43.93;19.57;;;4.70;97.00;;;;;;5067829;28;20059;-78
2021/01/29 10:18:50;;;;;;;35.25;18.23;;;4.70;97.60;;;;;;5065239;28;20032;-78
2021/01/29 10:21:36;;;;;;;;;;;;;;;;;;;;;
2021/01/29 10:24:08;;;;;;;36.00;18.27;;;4.70;97.40;;;;;;5093910;28;20027;-78
2021/01/29 10:26:49;;;;;;;34.53;18.65;;;4.70;97.00;;;;;;5072700;28;20021;-78
2021/01/29 10:29:22;;;;;;;34.17;18.10;;;4.70;97.30;;;;;;5061421;28;20028;-79
2021/01/29 10:32:11;;;;;;;37.75;17.17;;;4.70;97.00;;;;;;5100081;28;20074;-78
2021/01/29 10:35:07;;;;;;;39.17;19.43;;;4.70;97.00;;;;;;5090625;28;20025;-78
2021/01/29 10:38:21;;;;;;;43.97;18.75;;;4.80;97.00;;;;;;5069731;28;20032;-81
2021/01/29 10:44:17;;;;;;;40.75;19.25;;;4.90;97.10;;;;;;5011993;28;20134;-79
2021/01/29 10:47:11;;;;;;;40.00;18.90;;;4.80;96.90;;;;;;5076934;28;20489;-80
2021/01/29 10:49:37;;;;;;;35.33;18.80;;;4.90;96.70;;;;;;5065102;28;20028;-84
2021/01/29 10:52:27;;;;;;;34.10;18.63;;;4.90;96.80;;;;;;5071956;28;20035;-83
2021/01/29 10:54:53;;;;;;;40.42;18.80;;;4.90;96.40;;;;;;5060255;28;20024;-82
2021/01/29 10:57:45;;;;;;;38.95;19.02;;;5.00;96.30;;;;;;5072287;28;20038;-78
2021/01/29 11:00:32;;;;;;;29.77;18.25;;;5.00;96.40;;;;;;5091504;28;20028;-81
2021/01/29 11:03:06;;;;;;;34.78;17.90;;;5.10;96.50;;;;;;5090957;28;20020;-80
2021/01/29 11:05:36;;;;;;;35.40;18.50;;;5.10;96.40;;;;;;5060120;28;20043;-82
2021/01/29 11:08:41;;;;;;;31.40;17.20;;;5.10;96.00;;;;;;5064882;28;20115;-84
2021/01/29 11:11:21;;;;;;;42.72;18.30;;;5.10;96.20;;;;;;5074286;28;20027;-87
2021/01/29 11:14:11;;;;;;;34.58;18.00;;;5.10;95.50;;;;;;5085699;28;20049;-85
2021/01/29 11:16:49;;;;;;;30.25;15.80;;;5.10;95.80;;;;;;5078448;28;20036;-85
2021/01/29 11:19:33;;;;;;;33.10;17.48;;;5.10;95.60;;;;;;5069102;28;20043;-79
2021/01/29 11:22:35;;;;;;;31.95;18.02;;;5.10;95.40;;;;;;5090006;28;20028;-79
2021/01/29 11:25:19;;;;;;;35.47;16.95;;;5.10;95.10;;;;;;5070295;28;20080;-78
2021/01/29 11:27:50;;;;;;;38.85;19.65;;;5.10;95.30;;;;;;5065905;28;20024;-80
2021/01/29 11:30:32;;;;;;;38.20;18.50;;;5.10;95.30;;;;;;5072079;28;20099;-80
2021/01/29 11:33:01;;;;;;;33.40;18.38;;;5.20;95.60;;;;;;5061266;28;20023;-85
2021/01/29 11:35:50;;;;;;;44.08;18.05;;;5.20;95.40;;;;;;5074400;28;20037;-81
2021/01/29 11:38:16;;;;;;;39.13;17.48;;;5.30;95.60;;;;;;5054999;28;20035;-80
2021/01/29 11:41:15;;;;;;;32.42;17.50;;;5.30;95.50;;;;;;5055588;28;20040;-80
2021/01/29 11:44:14;;;;;;;30.85;17.60;;;5.30;95.40;;;;;;5105782;28;20665;-80
2021/01/29 11:47:00;;;;;;;37.08;18.73;;;5.40;94.90;;;;;;5092646;28;20051;-80
2021/01/29 11:49:38;;;;;;;34.30;17.20;;;5.40;94.70;;;;;;5110592;28;20481;-81
2021/01/29 11:52:22;;;;;;;32.28;17.17;;;5.40;94.00;;;;;;5092618;28;20031;-80
2021/01/29 11:55:07;;;;;;;45.10;16.85;;;5.40;94.20;;;;;;5093009;28;20043;-80
2021/01/29 11:57:38;;;;;;;38.35;17.00;;;5.40;94.40;;;;;;5111111;28;20020;-80
2021/01/29 12:00:36;;;;;;;36.75;17.00;;;5.50;94.80;;;;;;5092898;28;20027;-80
2021/01/29 12:03:33;;;;;;;29.48;16.38;;;5.60;95.10;;;;;;5057534;28;20432;-80
2021/01/29 12:06:33;;;;;;;31.00;17.13;;;5.60;95.00;;;;;;5096701;28;20020;-80
2021/01/29 12:09:37;;;;;;;32.75;18.50;;;5.60;94.60;;;;;;5083619;28;20105;-80
2021/01/29 12:12:46;;;;;;;31.60;18.60;;;5.70;94.80;;;;;;5096268;28;20023;-80
2021/01/29 12:15:38;;;;;;;32.90;18.25;;;5.70;94.70;;;;;;5082257;28;20038;-79
2021/01/29 12:18:11;;;;;;;15.48;11.15;;;5.80;95.20;;;;;;5046115;28;20496;-79
2021/01/29 12:20:42;;;;;;;30.83;16.40;;;5.90;96.50;;;;;;5094647;28;20024;-77
2021/01/29 12:23:22;;;;;;;30.90;19.55;;;6.20;95.80;;;;;;5075968;28;20027;-77
2021/01/29 12:26:06;;;;;;;35.40;18.67;;;6.10;95.00;;;;;;5094111;28;20058;-78
2021/01/29 12:28:50;;;;;;;37.70;19.40;;;6.00;94.40;;;;;;5076138;28;20405;-78
2021/01/29 12:31:45;;;;;;;33.70;19.08;;;6.00;94.70;;;;;;5075695;28;20432;-78
2021/01/29 12:34:21;;;;;;;38.40;19.77;;;6.00;95.20;;;;;;5075170;28;20028;-78
2021/01/29 12:37:01;;;;;;;38.28;20.48;;;6.00;95.20;;;;;;5093801;28;20533;-79
2021/01/29 12:39:43;;;;;;;42.97;20.52;;;6.00;95.40;;;;;;5094010;28;20394;-79
2021/01/29 12:42:24;;;;;;;35.03;20.08;;;6.00;95.60;;;;;;5075637;28;20040;-78
2021/01/29 12:44:56;;;;;;;35.40;20.98;;;6.00;96.00;;;;;;5075639;28;20028;-78
2021/01/29 12:47:50;;;;;;;31.85;19.13;;;6.00;95.80;;;;;;5075961;28;20696;-78
2021/01/29 12:50:44;;;;;;;34.38;17.80;;;6.00;95.30;;;;;;5093323;28;20016;-78
2021/01/29 12:53:13;;;;;;;38.67;18.05;;;6.00;95.30;;;;;;5056776;28;20025;-78
2021/01/29 12:56:08;;;;;;;28.77;18.27;;;6.00;95.60;;;;;;5071590;28;20142;-78
2021/01/29 12:58:40;;;;;;;28.67;17.05;;;6.10;95.70;;;;;;5015406;28;20048;-78
2021/01/29 13:01:09;;;;;;;35.63;18.60;;;6.10;95.70;;;;;;5068259;28;20360;-78
2021/01/29 13:03:56;;;;;;;27.75;17.08;;;6.10;95.40;;;;;;5074973;28;20070;-78
2021/01/29 13:06:34;;;;;;;34.22;18.17;;;6.10;95.40;;;;;;5072356;28;20024;-78
2021/01/29 13:09:37;;;;;;;29.67;17.10;;;6.10;95.50;;;;;;5072235;28;20031;-79
2021/01/29 13:12:12;;;;;;;31.60;18.30;;;6.10;95.20;;;;;;5079402;28;20016;-79
2021/01/29 13:14:55;;;;;;;32.95;18.42;;;6.10;95.50;;;;;;5095420;28;20024;-79
2021/01/29 13:17:40;;;;;;;35.20;18.80;;;6.10;95.30;;;;;;5095588;28;20028;-79
2021/01/29 13:20:26;;;;;;;34.10;19.20;;;6.00;95.30;;;;;;5074078;28;20413;-78
2021/01/29 13:23:22;;;;;;;29.33;17.00;;;6.00;95.50;;;;;;5064803;28;20024;-79
2021/01/29 13:25:57;;;;;;;32.30;16.05;;;6.00;95.60;;;;;;5093090;28;20051;-79
2021/01/29 13:28:24;;;;;;;29.58;16.48;;;6.00;95.30;;;;;;5115842;28;20354;-79
2021/01/29 13:30:50;;;;;;;34.00;16.88;;;6.00;95.50;;;;;;5097388;28;20024;-79
2021/01/29 13:33:28;;;;;;;32.40;17.80;;;6.10;95.90;;;;;;5097424;28;20488;-79
2021/01/29 13:36:15;;;;;;;34.97;17.38;;;6.20;95.80;;;;;;5086518;28;20154;-79
2021/01/29 13:38:42;;;;;;;28.35;18.65;;;6.20;95.30;;;;;;5092903;28;20035;-79
2021/01/29 13:41:35;;;;;;;30.38;17.45;;;6.10;95.40;;;;;;5074311;28;20038;-79
2021/01/29 13:44:20;;;;;;;29.25;17.45;;;6.10;95.20;;;;;;5093003;28;20031;-79
2021/01/29 13:46:50;;;;;;;34.55;18.85;;;6.10;95.20;;;;;;5074504;28;20016;-79
2021/01/29 13:49:35;;;;;;;34.13;19.73;;;6.10;95.10;;;;;;5092837;28;20024;-79
2021/01/29 13:52:32;;;;;;;41.65;19.55;;;6.00;94.80;;;;;;5074280;28;20028;-78